sensor_id;sensor_type;location;lat;lon;timestamp;temperature;humidity
53962;DHT22;39868;53.398;6.564;2024-01-11T00:00:47;-0.70;76.80
53962;DHT22;39868;53.398;6.564;2024-01-11T00:03:15;-0.70;76.90
53962;DHT22;39868;53.398;6.564;2024-01-11T00:05:42;-0.70;76.90
53962;DHT22;39868;53.398;6.564;2024-01-11T00:08:11;-0.70;76.90
53962;DHT22;39868;53.398;6.564;2024-01-11T00:10:38;-0.70;76.90
53962;DHT22;39868;53.398;6.564;2024-01-11T00:13:08;-0.70;76.90
53962;DHT22;39868;53.398;6.564;2024-01-11T00:15:35;-0.70;76.90
53962;DHT22;39868;53.398;6.564;2024-01-11T00:18:03;-0.80;76.90
53962;DHT22;39868;53.398;6.564;2024-01-11T00:20:30;-0.80;76.90
53962;DHT22;39868;53.398;6.564;2024-01-11T00:22:57;-0.80;76.90
53962;DHT22;39868;53.398;6.564;2024-01-11T00:25:25;-0.80;76.90
53962;DHT22;39868;53.398;6.564;2024-01-11T00:27:52;-0.80;76.90
53962;DHT22;39868;53.398;6.564;2024-01-11T00:30:19;-0.80;76.90
53962;DHT22;39868;53.398;6.564;2024-01-11T00:32:47;-0.80;76.90
53962;DHT22;39868;53.398;6.564;2024-01-11T00:35:14;-0.80;77.50
53962;DHT22;39868;53.398;6.564;2024-01-11T00:37:41;-0.80;77.00
53962;DHT22;39868;53.398;6.564;2024-01-11T00:40:09;-0.80;77.00
53962;DHT22;39868;53.398;6.564;2024-01-11T00:42:36;-0.80;77.00
53962;DHT22;39868;53.398;6.564;2024-01-11T00:45:04;-0.80;77.10
53962;DHT22;39868;53.398;6.564;2024-01-11T00:47:32;-0.80;77.20
53962;DHT22;39868;53.398;6.564;2024-01-11T00:49:59;-0.80;77.30
53962;DHT22;39868;53.398;6.564;2024-01-11T00:52:26;-0.80;77.80
53962;DHT22;39868;53.398;6.564;2024-01-11T00:54:54;-0.80;77.30
53962;DHT22;39868;53.398;6.564;2024-01-11T00:57:21;-0.80;77.30
53962;DHT22;39868;53.398;6.564;2024-01-11T00:59:48;-0.80;77.30
53962;DHT22;39868;53.398;6.564;2024-01-11T01:02:16;-0.80;77.30
53962;DHT22;39868;53.398;6.564;2024-01-11T01:04:43;-0.80;77.30
53962;DHT22;39868;53.398;6.564;2024-01-11T01:07:10;-0.80;77.30
53962;DHT22;39868;53.398;6.564;2024-01-11T01:09:38;-0.80;77.40
53962;DHT22;39868;53.398;6.564;2024-01-11T01:12:05;-0.80;77.30
53962;DHT22;39868;53.398;6.564;2024-01-11T01:14:32;-0.80;77.40
53962;DHT22;39868;53.398;6.564;2024-01-11T01:17:01;-0.80;77.30
53962;DHT22;39868;53.398;6.564;2024-01-11T01:19:29;-0.80;77.40
53962;DHT22;39868;53.398;6.564;2024-01-11T01:21:56;-0.80;77.30
53962;DHT22;39868;53.398;6.564;2024-01-11T01:24:23;-0.70;77.40
53962;DHT22;39868;53.398;6.564;2024-01-11T01:26:51;-0.70;77.50
53962;DHT22;39868;53.398;6.564;2024-01-11T01:29:18;-0.70;77.50
53962;DHT22;39868;53.398;6.564;2024-01-11T01:31:45;-0.70;77.50
53962;DHT22;39868;53.398;6.564;2024-01-11T01:34:12;-0.70;77.60
53962;DHT22;39868;53.398;6.564;2024-01-11T01:36:42;-0.70;77.60
53962;DHT22;39868;53.398;6.564;2024-01-11T01:39:09;-0.70;77.60
53962;DHT22;39868;53.398;6.564;2024-01-11T01:41:36;-0.60;77.70
53962;DHT22;39868;53.398;6.564;2024-01-11T01:44:04;-0.70;77.60
53962;DHT22;39868;53.398;6.564;2024-01-11T01:46:31;-0.60;77.70
53962;DHT22;39868;53.398;6.564;2024-01-11T01:48:59;-0.60;77.70
53962;DHT22;39868;53.398;6.564;2024-01-11T01:51:28;-0.60;77.70
53962;DHT22;39868;53.398;6.564;2024-01-11T01:53:56;-0.50;77.80
53962;DHT22;39868;53.398;6.564;2024-01-11T01:56:24;-0.50;77.80
53962;DHT22;39868;53.398;6.564;2024-01-11T01:58:53;-0.50;77.90
53962;DHT22;39868;53.398;6.564;2024-01-11T02:01:21;-0.50;77.90
53962;DHT22;39868;53.398;6.564;2024-01-11T02:03:51;-0.50;77.80
53962;DHT22;39868;53.398;6.564;2024-01-11T02:06:22;-0.40;77.90
53962;DHT22;39868;53.398;6.564;2024-01-11T02:08:52;-0.40;77.90
53962;DHT22;39868;53.398;6.564;2024-01-11T02:11:20;-0.40;77.80
53962;DHT22;39868;53.398;6.564;2024-01-11T02:13:50;-0.40;77.80
53962;DHT22;39868;53.398;6.564;2024-01-11T02:16:18;-0.40;77.70
53962;DHT22;39868;53.398;6.564;2024-01-11T02:18:45;-0.40;77.70
53962;DHT22;39868;53.398;6.564;2024-01-11T02:21:14;-0.40;78.00
53962;DHT22;39868;53.398;6.564;2024-01-11T02:24:06;-0.50;77.60
53962;DHT22;39868;53.398;6.564;2024-01-11T02:26:33;-0.50;77.60
53962;DHT22;39868;53.398;6.564;2024-01-11T02:29:01;-0.50;77.60
53962;DHT22;39868;53.398;6.564;2024-01-11T02:31:29;-0.50;77.60
53962;DHT22;39868;53.398;6.564;2024-01-11T02:33:56;-0.50;77.60
53962;DHT22;39868;53.398;6.564;2024-01-11T02:36:25;-0.50;77.70
53962;DHT22;39868;53.398;6.564;2024-01-11T02:38:53;-0.40;77.80
53962;DHT22;39868;53.398;6.564;2024-01-11T02:41:21;-0.40;77.80
53962;DHT22;39868;53.398;6.564;2024-01-11T02:43:49;-0.50;77.80
53962;DHT22;39868;53.398;6.564;2024-01-11T02:46:17;-0.50;77.70
53962;DHT22;39868;53.398;6.564;2024-01-11T02:48:44;-0.40;77.80
53962;DHT22;39868;53.398;6.564;2024-01-11T02:51:12;-0.40;77.90
53962;DHT22;39868;53.398;6.564;2024-01-11T02:53:39;-0.40;77.90
53962;DHT22;39868;53.398;6.564;2024-01-11T02:56:06;-0.40;78.00
53962;DHT22;39868;53.398;6.564;2024-01-11T02:58:34;-0.40;78.00
53962;DHT22;39868;53.398;6.564;2024-01-11T03:01:01;-0.30;78.10
53962;DHT22;39868;53.398;6.564;2024-01-11T03:03:29;-0.30;78.10
53962;DHT22;39868;53.398;6.564;2024-01-11T03:05:57;-0.30;78.20
53962;DHT22;39868;53.398;6.564;2024-01-11T03:08:25;-0.30;78.20
53962;DHT22;39868;53.398;6.564;2024-01-11T03:10:53;-0.30;78.30
53962;DHT22;39868;53.398;6.564;2024-01-11T03:13:20;-0.20;78.30
53962;DHT22;39868;53.398;6.564;2024-01-11T03:15:48;-0.20;78.30
53962;DHT22;39868;53.398;6.564;2024-01-11T03:18:15;-0.20;78.30
53962;DHT22;39868;53.398;6.564;2024-01-11T03:20:43;-0.10;78.40
53962;DHT22;39868;53.398;6.564;2024-01-11T03:23:10;-0.10;78.40
53962;DHT22;39868;53.398;6.564;2024-01-11T03:25:37;-0.10;78.40
53962;DHT22;39868;53.398;6.564;2024-01-11T03:28:05;-0.10;78.40
53962;DHT22;39868;53.398;6.564;2024-01-11T03:30:32;-0.10;78.40
53962;DHT22;39868;53.398;6.564;2024-01-11T03:32:59;0.00;79.10
53962;DHT22;39868;53.398;6.564;2024-01-11T03:35:27;0.00;78.60
53962;DHT22;39868;53.398;6.564;2024-01-11T03:37:54;0.00;78.50
53962;DHT22;39868;53.398;6.564;2024-01-11T03:40:21;0.10;78.60
53962;DHT22;39868;53.398;6.564;2024-01-11T03:42:49;0.10;78.60
53962;DHT22;39868;53.398;6.564;2024-01-11T03:45:19;0.10;78.60
53962;DHT22;39868;53.398;6.564;2024-01-11T03:47:46;0.20;78.70
53962;DHT22;39868;53.398;6.564;2024-01-11T03:50:14;0.20;78.70
53962;DHT22;39868;53.398;6.564;2024-01-11T03:52:42;0.30;78.80
53962;DHT22;39868;53.398;6.564;2024-01-11T03:55:09;0.30;78.80
53962;DHT22;39868;53.398;6.564;2024-01-11T03:57:36;0.30;78.80
53962;DHT22;39868;53.398;6.564;2024-01-11T04:00:04;0.30;78.80
53962;DHT22;39868;53.398;6.564;2024-01-11T04:02:37;0.40;78.90
53962;DHT22;39868;53.398;6.564;2024-01-11T04:05:05;0.40;78.90
53962;DHT22;39868;53.398;6.564;2024-01-11T04:07:32;0.50;78.90
53962;DHT22;39868;53.398;6.564;2024-01-11T04:10:00;0.50;78.90
53962;DHT22;39868;53.398;6.564;2024-01-11T04:12:27;0.60;79.00
53962;DHT22;39868;53.398;6.564;2024-01-11T04:14:54;0.60;79.00
53962;DHT22;39868;53.398;6.564;2024-01-11T04:17:22;0.70;79.00
53962;DHT22;39868;53.398;6.564;2024-01-11T04:19:49;0.70;79.10
53962;DHT22;39868;53.398;6.564;2024-01-11T04:22:16;0.70;79.00
53962;DHT22;39868;53.398;6.564;2024-01-11T04:24:44;0.70;79.00
53962;DHT22;39868;53.398;6.564;2024-01-11T04:27:11;0.80;79.10
53962;DHT22;39868;53.398;6.564;2024-01-11T04:29:39;0.80;79.10
53962;DHT22;39868;53.398;6.564;2024-01-11T04:32:06;0.80;79.00
53962;DHT22;39868;53.398;6.564;2024-01-11T04:34:33;0.90;79.20
53962;DHT22;39868;53.398;6.564;2024-01-11T04:37:00;0.90;79.20
53962;DHT22;39868;53.398;6.564;2024-01-11T04:39:28;0.90;79.10
53962;DHT22;39868;53.398;6.564;2024-01-11T04:41:55;1.00;79.80
53962;DHT22;39868;53.398;6.564;2024-01-11T04:44:22;1.00;79.20
53962;DHT22;39868;53.398;6.564;2024-01-11T04:46:52;1.00;79.20
53962;DHT22;39868;53.398;6.564;2024-01-11T04:49:19;1.10;79.30
53962;DHT22;39868;53.398;6.564;2024-01-11T04:51:47;1.10;79.30
53962;DHT22;39868;53.398;6.564;2024-01-11T04:54:14;1.10;79.30
53962;DHT22;39868;53.398;6.564;2024-01-11T04:56:41;1.20;79.40
53962;DHT22;39868;53.398;6.564;2024-01-11T04:59:09;1.20;79.40
53962;DHT22;39868;53.398;6.564;2024-01-11T05:01:36;1.20;79.30
53962;DHT22;39868;53.398;6.564;2024-01-11T05:04:03;1.20;79.30
53962;DHT22;39868;53.398;6.564;2024-01-11T05:06:33;1.30;79.40
53962;DHT22;39868;53.398;6.564;2024-01-11T05:09:01;1.30;79.40
53962;DHT22;39868;53.398;6.564;2024-01-11T05:11:28;1.30;79.40
53962;DHT22;39868;53.398;6.564;2024-01-11T05:13:56;1.40;79.40
53962;DHT22;39868;53.398;6.564;2024-01-11T05:16:25;1.40;79.50
53962;DHT22;39868;53.398;6.564;2024-01-11T05:18:54;1.40;79.50
53962;DHT22;39868;53.398;6.564;2024-01-11T05:21:22;1.50;79.50
53962;DHT22;39868;53.398;6.564;2024-01-11T05:23:50;1.50;79.50
53962;DHT22;39868;53.398;6.564;2024-01-11T05:26:19;1.50;79.50
53962;DHT22;39868;53.398;6.564;2024-01-11T05:28:46;1.60;79.60
53962;DHT22;39868;53.398;6.564;2024-01-11T05:31:15;1.60;79.60
53962;DHT22;39868;53.398;6.564;2024-01-11T05:33:44;1.60;79.60
53962;DHT22;39868;53.398;6.564;2024-01-11T05:36:12;1.70;79.60
53962;DHT22;39868;53.398;6.564;2024-01-11T05:38:39;1.60;79.60
53962;DHT22;39868;53.398;6.564;2024-01-11T05:41:08;1.70;79.60
53962;DHT22;39868;53.398;6.564;2024-01-11T05:43:37;1.70;79.60
53962;DHT22;39868;53.398;6.564;2024-01-11T05:46:06;1.80;79.70
53962;DHT22;39868;53.398;6.564;2024-01-11T05:48:34;1.80;79.70
53962;DHT22;39868;53.398;6.564;2024-01-11T05:51:01;1.80;79.70
53962;DHT22;39868;53.398;6.564;2024-01-11T05:53:29;1.90;79.70
53962;DHT22;39868;53.398;6.564;2024-01-11T05:55:56;1.90;79.70
53962;DHT22;39868;53.398;6.564;2024-01-11T05:58:24;1.90;79.70
53962;DHT22;39868;53.398;6.564;2024-01-11T06:00:51;2.00;79.80
53962;DHT22;39868;53.398;6.564;2024-01-11T06:03:18;2.00;79.80
53962;DHT22;39868;53.398;6.564;2024-01-11T06:05:46;2.00;79.80
53962;DHT22;39868;53.398;6.564;2024-01-11T06:08:13;2.00;79.80
53962;DHT22;39868;53.398;6.564;2024-01-11T06:10:41;2.10;79.80
53962;DHT22;39868;53.398;6.564;2024-01-11T06:13:08;2.10;79.80
53962;DHT22;39868;53.398;6.564;2024-01-11T06:15:36;2.10;79.80
53962;DHT22;39868;53.398;6.564;2024-01-11T06:18:04;2.10;79.80
53962;DHT22;39868;53.398;6.564;2024-01-11T06:20:32;2.20;79.90
53962;DHT22;39868;53.398;6.564;2024-01-11T06:22:59;2.20;79.90
53962;DHT22;39868;53.398;6.564;2024-01-11T06:25:27;2.20;79.90
53962;DHT22;39868;53.398;6.564;2024-01-11T06:27:54;2.20;79.90
53962;DHT22;39868;53.398;6.564;2024-01-11T06:30:22;2.30;80.00
53962;DHT22;39868;53.398;6.564;2024-01-11T06:32:49;2.30;80.00
53962;DHT22;39868;53.398;6.564;2024-01-11T06:35:17;2.30;80.00
53962;DHT22;39868;53.398;6.564;2024-01-11T06:37:44;2.30;80.00
53962;DHT22;39868;53.398;6.564;2024-01-11T06:40:11;2.40;80.00
53962;DHT22;39868;53.398;6.564;2024-01-11T06:42:38;2.40;80.00
53962;DHT22;39868;53.398;6.564;2024-01-11T06:45:06;2.40;80.00
53962;DHT22;39868;53.398;6.564;2024-01-11T06:47:33;2.40;80.00
53962;DHT22;39868;53.398;6.564;2024-01-11T06:50:01;2.40;80.00
53962;DHT22;39868;53.398;6.564;2024-01-11T06:52:29;2.50;80.10
53962;DHT22;39868;53.398;6.564;2024-01-11T06:54:57;2.50;80.10
53962;DHT22;39868;53.398;6.564;2024-01-11T06:57:24;2.50;80.10
53962;DHT22;39868;53.398;6.564;2024-01-11T06:59:51;2.50;80.20
53962;DHT22;39868;53.398;6.564;2024-01-11T07:02:19;2.50;80.10
53962;DHT22;39868;53.398;6.564;2024-01-11T07:04:46;2.60;80.20
53962;DHT22;39868;53.398;6.564;2024-01-11T07:07:13;2.60;80.20
53962;DHT22;39868;53.398;6.564;2024-01-11T07:09:40;2.60;80.20
53962;DHT22;39868;53.398;6.564;2024-01-11T07:12:08;2.60;80.20
53962;DHT22;39868;53.398;6.564;2024-01-11T07:14:36;2.70;80.30
53962;DHT22;39868;53.398;6.564;2024-01-11T07:17:03;2.70;80.30
53962;DHT22;39868;53.398;6.564;2024-01-11T07:19:31;2.70;80.30
53962;DHT22;39868;53.398;6.564;2024-01-11T07:21:59;2.70;80.30
53962;DHT22;39868;53.398;6.564;2024-01-11T07:24:26;2.70;80.30
53962;DHT22;39868;53.398;6.564;2024-01-11T07:26:53;2.70;80.30
53962;DHT22;39868;53.398;6.564;2024-01-11T07:29:21;2.80;80.40
53962;DHT22;39868;53.398;6.564;2024-01-11T07:31:48;2.80;80.30
53962;DHT22;39868;53.398;6.564;2024-01-11T07:34:15;2.80;80.30
53962;DHT22;39868;53.398;6.564;2024-01-11T07:36:45;2.80;80.30
53962;DHT22;39868;53.398;6.564;2024-01-11T07:39:12;2.80;80.40
53962;DHT22;39868;53.398;6.564;2024-01-11T07:41:39;2.80;80.30
53962;DHT22;39868;53.398;6.564;2024-01-11T07:44:07;2.80;80.30
53962;DHT22;39868;53.398;6.564;2024-01-11T07:46:34;2.80;80.40
53962;DHT22;39868;53.398;6.564;2024-01-11T07:49:15;2.90;80.50
53962;DHT22;39868;53.398;6.564;2024-01-11T07:51:43;2.90;80.40
53962;DHT22;39868;53.398;6.564;2024-01-11T07:54:10;2.90;80.50
53962;DHT22;39868;53.398;6.564;2024-01-11T07:56:37;2.90;80.50
53962;DHT22;39868;53.398;6.564;2024-01-11T07:59:05;3.00;80.60
53962;DHT22;39868;53.398;6.564;2024-01-11T08:01:32;3.00;80.60
53962;DHT22;39868;53.398;6.564;2024-01-11T08:04:02;3.00;80.60
53962;DHT22;39868;53.398;6.564;2024-01-11T08:06:30;3.00;80.50
53962;DHT22;39868;53.398;6.564;2024-01-11T08:08:57;3.00;80.50
53962;DHT22;39868;53.398;6.564;2024-01-11T08:11:25;3.10;80.60
53962;DHT22;39868;53.398;6.564;2024-01-11T08:13:54;3.10;80.60
53962;DHT22;39868;53.398;6.564;2024-01-11T08:16:22;3.10;80.70
53962;DHT22;39868;53.398;6.564;2024-01-11T08:18:50;3.10;80.60
53962;DHT22;39868;53.398;6.564;2024-01-11T08:21:17;3.10;80.60
53962;DHT22;39868;53.398;6.564;2024-01-11T08:23:44;3.20;80.70
53962;DHT22;39868;53.398;6.564;2024-01-11T08:26:15;3.20;80.70
53962;DHT22;39868;53.398;6.564;2024-01-11T08:28:43;3.20;80.70
53962;DHT22;39868;53.398;6.564;2024-01-11T08:31:10;3.30;80.80
53962;DHT22;39868;53.398;6.564;2024-01-11T08:33:37;3.30;80.80
53962;DHT22;39868;53.398;6.564;2024-01-11T08:36:06;3.30;80.80
53962;DHT22;39868;53.398;6.564;2024-01-11T08:38:34;3.40;80.90
53962;DHT22;39868;53.398;6.564;2024-01-11T08:41:03;3.40;81.00
53962;DHT22;39868;53.398;6.564;2024-01-11T08:43:31;3.50;81.00
53962;DHT22;39868;53.398;6.564;2024-01-11T08:45:58;3.50;81.00
53962;DHT22;39868;53.398;6.564;2024-01-11T08:48:26;3.50;81.00
53962;DHT22;39868;53.398;6.564;2024-01-11T08:50:54;3.60;81.00
53962;DHT22;39868;53.398;6.564;2024-01-11T08:53:21;3.60;81.20
53962;DHT22;39868;53.398;6.564;2024-01-11T08:55:48;3.60;81.20
53962;DHT22;39868;53.398;6.564;2024-01-11T08:58:16;3.60;81.10
53962;DHT22;39868;53.398;6.564;2024-01-11T09:00:43;3.70;81.10
53962;DHT22;39868;53.398;6.564;2024-01-11T09:03:11;3.70;81.10
53962;DHT22;39868;53.398;6.564;2024-01-11T09:05:41;3.70;81.00
53962;DHT22;39868;53.398;6.564;2024-01-11T09:08:08;3.80;81.10
53962;DHT22;39868;53.398;6.564;2024-01-11T09:10:36;3.80;81.10
53962;DHT22;39868;53.398;6.564;2024-01-11T09:13:03;3.80;81.10
53962;DHT22;39868;53.398;6.564;2024-01-11T09:15:31;3.80;81.10
53962;DHT22;39868;53.398;6.564;2024-01-11T09:17:59;3.90;81.10
53962;DHT22;39868;53.398;6.564;2024-01-11T09:20:30;3.90;81.10
53962;DHT22;39868;53.398;6.564;2024-01-11T09:22:57;3.90;81.10
53962;DHT22;39868;53.398;6.564;2024-01-11T09:25:24;3.90;81.10
53962;DHT22;39868;53.398;6.564;2024-01-11T09:27:52;4.00;81.10
53962;DHT22;39868;53.398;6.564;2024-01-11T09:30:19;4.00;81.10
53962;DHT22;39868;53.398;6.564;2024-01-11T09:32:46;4.00;81.10
53962;DHT22;39868;53.398;6.564;2024-01-11T09:35:15;4.10;81.10
53962;DHT22;39868;53.398;6.564;2024-01-11T09:37:43;4.10;81.20
53962;DHT22;39868;53.398;6.564;2024-01-11T09:40:13;4.10;81.20
53962;DHT22;39868;53.398;6.564;2024-01-11T09:42:40;4.20;81.30
53962;DHT22;39868;53.398;6.564;2024-01-11T09:45:12;4.20;81.30
53962;DHT22;39868;53.398;6.564;2024-01-11T09:47:40;4.30;81.40
53962;DHT22;39868;53.398;6.564;2024-01-11T09:50:08;4.30;81.40
53962;DHT22;39868;53.398;6.564;2024-01-11T09:52:36;4.40;81.50
53962;DHT22;39868;53.398;6.564;2024-01-11T09:55:05;4.40;81.50
53962;DHT22;39868;53.398;6.564;2024-01-11T09:57:37;4.50;81.50
53962;DHT22;39868;53.398;6.564;2024-01-11T10:00:06;4.50;81.60
53962;DHT22;39868;53.398;6.564;2024-01-11T10:02:34;4.60;81.60
53962;DHT22;39868;53.398;6.564;2024-01-11T10:05:02;4.60;81.50
53962;DHT22;39868;53.398;6.564;2024-01-11T10:07:31;4.60;81.50
53962;DHT22;39868;53.398;6.564;2024-01-11T10:10:00;4.60;81.40
53962;DHT22;39868;53.398;6.564;2024-01-11T10:12:30;4.60;81.30
53962;DHT22;39868;53.398;6.564;2024-01-11T10:15:05;4.70;81.30
53962;DHT22;39868;53.398;6.564;2024-01-11T10:17:34;4.70;81.30
53962;DHT22;39868;53.398;6.564;2024-01-11T10:20:01;4.70;81.30
53962;DHT22;39868;53.398;6.564;2024-01-11T10:22:30;4.80;81.30
53962;DHT22;39868;53.398;6.564;2024-01-11T10:25:15;4.80;81.30
53962;DHT22;39868;53.398;6.564;2024-01-11T10:27:43;4.80;81.40
53962;DHT22;39868;53.398;6.564;2024-01-11T10:30:13;4.80;81.40
53962;DHT22;39868;53.398;6.564;2024-01-11T10:32:44;4.90;81.40
53962;DHT22;39868;53.398;6.564;2024-01-11T10:35:12;4.90;81.40
53962;DHT22;39868;53.398;6.564;2024-01-11T10:37:39;4.90;81.40
53962;DHT22;39868;53.398;6.564;2024-01-11T10:40:09;4.90;81.50
53962;DHT22;39868;53.398;6.564;2024-01-11T10:42:42;5.00;81.50
53962;DHT22;39868;53.398;6.564;2024-01-11T10:45:19;5.00;81.60
53962;DHT22;39868;53.398;6.564;2024-01-11T10:48:02;5.00;81.70
53962;DHT22;39868;53.398;6.564;2024-01-11T10:50:36;5.10;81.80
53962;DHT22;39868;53.398;6.564;2024-01-11T10:53:28;5.10;81.80
53962;DHT22;39868;53.398;6.564;2024-01-11T10:55:59;5.10;81.80
53962;DHT22;39868;53.398;6.564;2024-01-11T10:58:28;5.20;81.90
53962;DHT22;39868;53.398;6.564;2024-01-11T11:00:57;5.20;81.90
53962;DHT22;39868;53.398;6.564;2024-01-11T11:03:26;5.20;81.80
53962;DHT22;39868;53.398;6.564;2024-01-11T11:05:56;5.20;81.70
53962;DHT22;39868;53.398;6.564;2024-01-11T11:08:25;5.30;81.70
53962;DHT22;39868;53.398;6.564;2024-01-11T11:10:58;5.30;81.70
53962;DHT22;39868;53.398;6.564;2024-01-11T11:13:26;5.30;81.70
53962;DHT22;39868;53.398;6.564;2024-01-11T11:15:54;5.30;81.70
53962;DHT22;39868;53.398;6.564;2024-01-11T11:18:27;5.30;81.70
53962;DHT22;39868;53.398;6.564;2024-01-11T11:20:55;5.30;81.70
53962;DHT22;39868;53.398;6.564;2024-01-11T11:23:22;5.30;81.70
53962;DHT22;39868;53.398;6.564;2024-01-11T11:25:54;5.30;81.70
53962;DHT22;39868;53.398;6.564;2024-01-11T11:28:22;5.30;81.80
53962;DHT22;39868;53.398;6.564;2024-01-11T11:30:49;5.40;81.70
53962;DHT22;39868;53.398;6.564;2024-01-11T11:33:22;5.40;81.70
53962;DHT22;39868;53.398;6.564;2024-01-11T11:35:57;5.40;81.70
53962;DHT22;39868;53.398;6.564;2024-01-11T11:38:29;5.40;81.70
53962;DHT22;39868;53.398;6.564;2024-01-11T11:40:58;5.40;81.70
53962;DHT22;39868;53.398;6.564;2024-01-11T11:43:29;5.40;81.70
53962;DHT22;39868;53.398;6.564;2024-01-11T11:45:58;5.40;81.70
53962;DHT22;39868;53.398;6.564;2024-01-11T11:53:37;5.40;81.80
53962;DHT22;39868;53.398;6.564;2024-01-11T11:56:05;5.50;81.90
53962;DHT22;39868;53.398;6.564;2024-01-11T11:58:34;5.50;81.80
53962;DHT22;39868;53.398;6.564;2024-01-11T12:01:02;5.50;81.80
53962;DHT22;39868;53.398;6.564;2024-01-11T12:03:35;5.50;81.80
53962;DHT22;39868;53.398;6.564;2024-01-11T12:06:06;5.50;81.90
53962;DHT22;39868;53.398;6.564;2024-01-11T12:08:35;5.50;82.00
53962;DHT22;39868;53.398;6.564;2024-01-11T12:11:03;5.60;82.00
53962;DHT22;39868;53.398;6.564;2024-01-11T12:13:31;5.60;82.10
53962;DHT22;39868;53.398;6.564;2024-01-11T12:15:59;5.60;82.30
53962;DHT22;39868;53.398;6.564;2024-01-11T12:18:27;5.60;82.30
53962;DHT22;39868;53.398;6.564;2024-01-11T12:20:54;5.70;82.30
53962;DHT22;39868;53.398;6.564;2024-01-11T12:23:22;5.70;82.50
53962;DHT22;39868;53.398;6.564;2024-01-11T12:25:49;5.80;82.60
53962;DHT22;39868;53.398;6.564;2024-01-11T12:28:17;5.80;82.70
53962;DHT22;39868;53.398;6.564;2024-01-11T12:30:45;5.90;82.60
53962;DHT22;39868;53.398;6.564;2024-01-11T12:33:13;5.90;82.60
53962;DHT22;39868;53.398;6.564;2024-01-11T12:35:41;5.90;82.50
53962;DHT22;39868;53.398;6.564;2024-01-11T12:38:08;5.90;82.50
53962;DHT22;39868;53.398;6.564;2024-01-11T12:40:38;5.90;82.50
53962;DHT22;39868;53.398;6.564;2024-01-11T12:43:07;6.00;82.50
53962;DHT22;39868;53.398;6.564;2024-01-11T12:45:35;6.00;82.40
53962;DHT22;39868;53.398;6.564;2024-01-11T12:48:07;6.00;82.40
53962;DHT22;39868;53.398;6.564;2024-01-11T12:50:36;6.00;82.50
53962;DHT22;39868;53.398;6.564;2024-01-11T12:53:15;6.00;82.40
53962;DHT22;39868;53.398;6.564;2024-01-11T12:55:47;6.00;82.50
53962;DHT22;39868;53.398;6.564;2024-01-11T12:58:24;6.00;82.40
53962;DHT22;39868;53.398;6.564;2024-01-11T13:00:53;6.00;82.40
53962;DHT22;39868;53.398;6.564;2024-01-11T13:03:21;6.10;82.50
53962;DHT22;39868;53.398;6.564;2024-01-11T13:05:49;6.10;82.60
53962;DHT22;39868;53.398;6.564;2024-01-11T13:08:16;6.10;82.50
53962;DHT22;39868;53.398;6.564;2024-01-11T13:10:47;6.10;82.50
53962;DHT22;39868;53.398;6.564;2024-01-11T13:13:16;6.20;83.20
53962;DHT22;39868;53.398;6.564;2024-01-11T13:15:44;6.20;83.30
53962;DHT22;39868;53.398;6.564;2024-01-11T13:18:12;6.30;82.80
53962;DHT22;39868;53.398;6.564;2024-01-11T13:20:39;6.30;82.90
53962;DHT22;39868;53.398;6.564;2024-01-11T13:23:18;6.30;83.00
53962;DHT22;39868;53.398;6.564;2024-01-11T13:25:48;6.40;83.20
53962;DHT22;39868;53.398;6.564;2024-01-11T13:28:19;6.50;83.30
53962;DHT22;39868;53.398;6.564;2024-01-11T13:30:49;6.60;83.40
53962;DHT22;39868;53.398;6.564;2024-01-11T13:33:17;6.60;83.40
53962;DHT22;39868;53.398;6.564;2024-01-11T13:35:45;6.70;83.60
53962;DHT22;39868;53.398;6.564;2024-01-11T13:38:13;6.70;83.40
53962;DHT22;39868;53.398;6.564;2024-01-11T13:40:41;6.80;83.40
53962;DHT22;39868;53.398;6.564;2024-01-11T13:43:10;6.80;83.40
53962;DHT22;39868;53.398;6.564;2024-01-11T13:45:37;6.90;83.30
53962;DHT22;39868;53.398;6.564;2024-01-11T13:48:05;6.90;83.20
53962;DHT22;39868;53.398;6.564;2024-01-11T13:50:34;7.00;83.20
53962;DHT22;39868;53.398;6.564;2024-01-11T13:53:01;7.00;83.00
53962;DHT22;39868;53.398;6.564;2024-01-11T13:55:31;7.00;83.00
53962;DHT22;39868;53.398;6.564;2024-01-11T13:58:06;7.00;82.80
53962;DHT22;39868;53.398;6.564;2024-01-11T14:00:34;7.00;82.60
53962;DHT22;39868;53.398;6.564;2024-01-11T14:03:01;7.00;82.50
53962;DHT22;39868;53.398;6.564;2024-01-11T14:05:31;7.00;82.50
53962;DHT22;39868;53.398;6.564;2024-01-11T14:07:58;7.00;82.40
53962;DHT22;39868;53.398;6.564;2024-01-11T14:10:27;7.00;82.30
53962;DHT22;39868;53.398;6.564;2024-01-11T14:12:55;7.00;82.30
53962;DHT22;39868;53.398;6.564;2024-01-11T14:15:22;7.00;82.20
53962;DHT22;39868;53.398;6.564;2024-01-11T14:17:50;7.00;82.20
53962;DHT22;39868;53.398;6.564;2024-01-11T14:20:18;7.00;82.10
53962;DHT22;39868;53.398;6.564;2024-01-11T14:22:46;6.90;82.10
53962;DHT22;39868;53.398;6.564;2024-01-11T14:25:18;6.90;82.10
53962;DHT22;39868;53.398;6.564;2024-01-11T14:27:49;6.90;82.10
53962;DHT22;39868;53.398;6.564;2024-01-11T14:30:16;6.90;82.10
53962;DHT22;39868;53.398;6.564;2024-01-11T14:32:44;6.90;82.10
53962;DHT22;39868;53.398;6.564;2024-01-11T14:35:13;6.90;82.20
53962;DHT22;39868;53.398;6.564;2024-01-11T14:37:41;6.90;82.20
53962;DHT22;39868;53.398;6.564;2024-01-11T14:40:09;6.90;82.20
53962;DHT22;39868;53.398;6.564;2024-01-11T14:42:40;6.90;82.20
53962;DHT22;39868;53.398;6.564;2024-01-11T14:45:08;6.90;82.20
53962;DHT22;39868;53.398;6.564;2024-01-11T14:47:36;6.90;82.20
53962;DHT22;39868;53.398;6.564;2024-01-11T14:50:04;6.80;82.20
53962;DHT22;39868;53.398;6.564;2024-01-11T14:52:31;6.90;82.20
53962;DHT22;39868;53.398;6.564;2024-01-11T14:54:59;6.80;82.10
53962;DHT22;39868;53.398;6.564;2024-01-11T14:57:26;6.80;82.10
53962;DHT22;39868;53.398;6.564;2024-01-11T14:59:54;6.80;82.10
53962;DHT22;39868;53.398;6.564;2024-01-11T15:02:21;6.70;82.00
53962;DHT22;39868;53.398;6.564;2024-01-11T15:04:49;6.70;82.10
53962;DHT22;39868;53.398;6.564;2024-01-11T15:07:16;6.70;82.10
53962;DHT22;39868;53.398;6.564;2024-01-11T15:09:43;6.70;82.10
53962;DHT22;39868;53.398;6.564;2024-01-11T15:12:11;6.70;82.30
53962;DHT22;39868;53.398;6.564;2024-01-11T15:14:38;6.70;82.30
53962;DHT22;39868;53.398;6.564;2024-01-11T15:17:05;6.70;82.70
53962;DHT22;39868;53.398;6.564;2024-01-11T15:19:33;6.70;82.90
53962;DHT22;39868;53.398;6.564;2024-01-11T15:22:00;6.70;83.10
53962;DHT22;39868;53.398;6.564;2024-01-11T15:24:27;6.70;83.30
53962;DHT22;39868;53.398;6.564;2024-01-11T15:26:56;6.60;83.20
53962;DHT22;39868;53.398;6.564;2024-01-11T15:29:23;6.60;83.20
53962;DHT22;39868;53.398;6.564;2024-01-11T15:31:50;6.60;83.20
53962;DHT22;39868;53.398;6.564;2024-01-11T15:34:18;6.60;83.40
53962;DHT22;39868;53.398;6.564;2024-01-11T15:36:46;6.60;83.50
53962;DHT22;39868;53.398;6.564;2024-01-11T15:39:14;6.60;83.70
53962;DHT22;39868;53.398;6.564;2024-01-11T15:41:53;6.60;83.70
53962;DHT22;39868;53.398;6.564;2024-01-11T15:44:23;6.60;83.70
53962;DHT22;39868;53.398;6.564;2024-01-11T15:46:56;6.60;83.80
53962;DHT22;39868;53.398;6.564;2024-01-11T15:49:24;6.60;83.80
53962;DHT22;39868;53.398;6.564;2024-01-11T15:51:53;6.60;83.70
53962;DHT22;39868;53.398;6.564;2024-01-11T15:54:20;6.60;83.60